Galesburg, IL

8:30 PM CST on February 01, 2015 (GMT -0600)
Galesburg Municipal | Change Station
CLOSE
Current Station
Airport
Location: Galesburg,
Elevation: 764 ft
Nearby Weather Stations
Active Advisory: Winter Storm Warning Active Notice: Local Storm Report

Elev 764 ft 40.94 °N, 90.43 °W | Updated 15 minutes ago

Snow
Snow
16 °F
Feels Like -1 °F
N
18
Wind Variable Wind from NNW
Gusts 24 mph

Today
High -- | Low -- °F
--% Chance of Precip.
Yesterday
High -- | Low -- °F
Precip. -- in
7:12 AM 5:18 PM
Waxing Gibbous, 97% visible
Pressure 29.94 in
Visibility 3.0 miles
Clouds Overcast 1600 ft
Windchill -1 °F
Dew Point 13 °F
Humidity 89%
Rainfall 0.45 in
Snow Depth Not available.
UV 0 out of 12
Pollen .10 out of 12
Air Quality Not available.
Flu Activity Not available.
METAR KGBG 020215Z AUTO 34016G21KT 3SM -SN OVC016 M09/M10 A2994 RMK AO2 T10901105

More Conditions Fewer Conditions

Pressure 29.94 in
Visibility 3.0 miles
Clouds Overcast 1600 ft
Windchill -1 °F
Dew Point 13 °F
Humidity 89%
Rainfall 0.45 in
Snow Depth Not available.
UV 0 out of 12
Pollen .10 out of 12
Air Quality Not available.
Flu Activity Not available.
METAR KGBG 020215Z AUTO 34016G21KT 3SM -SN OVC016 M09/M10 A2994 RMK AO2 T10901105

More Conditions Fewer Conditions

10-Day Weather Forecast

Almanac

Astronomy

Feb. 01, 2015 Rise Set
Actual Time
Civil Twilight
Nautical Twilight
Astronomical Twilight
Moon
Length of Visible Light
Length of Day
Tomorrow will be .
, % of the Moon is Illuminated

Today's Extremes

State Highs State Lows

Community

WunderPhotos

Upload Photos

1,792,659 photos uploaded!

WunderBlogs® & News

Nearby

Air Quality

  Air Quality AQ Index Pollutant
Not available.

Snow Depth

Station Depth Elevation

Earthquake Activity

City Distance Mag. Time & Date
Minimum magnitude displayed is 2.5.

Coastal Water Temperatures

Place Temperature

Nearby Weather Stations